Home > Products > Valid Products > MTR

000
SAZS31 NSTU 222354
MTRPPG
METAR NSTU 222350Z 13010KT 12SM FEW023 SCT050 BKN100 BKN200 30/24
A2986 RMK SLP113 8/411 T03010235 10305 20272 57019=




000
SAZS31 NSTU 222254
MTRPPG
METAR NSTU 222250Z 13010KT 12SM FEW023TCU SCT050 BKN100 BKN200 31/24
A2989 RMK TCU NW-NE SLP124 T03050240=




000
SAZS31 NSTU 222254
MTRPPG
METAR NSTU 222250Z 13010KT 12SM FEW023TCU SCT050 BKN100 BKN200 31/24
A2989 RMK TCU NW-NE SLP124 T03050240=




000
SAZS31 NSTU 222152
MTRPPG
METAR NSTU 222150Z 11010KT 12SM SCT023 BKN200 30/24 A2990 RMK SLP127
T02980236=




000
SAZS31 NSTU 222058
MTRPPG
METAR NSTU 222055Z 10012KT 12SM SCT023 BKN200 29/23 A2992 RMK SLP132
8/108 T02870234 52008=




000
SAZS31 NSTU 221859
MTRPPG
METAR NSTU 221856Z 10012KT 12SM SCT024TCU SCT050 BKN100 OVC200 29/24
A2992 RMK TCU NW-NE SLP132 T02850237=




000
SAZS31 NSTU 221754
MTRPPG
METAR NSTU 221750Z 11014KT 12SM FEW024 OVC120 27/23 A2989 RMK SLP124
 8/13/ T02720229 10272 20266 51014=




000
SAZS31 NSTU 221754
MTRPPG
METAR NSTU 221750Z 11014KT 12SM FEW024 OVC120 27/23 A2989 RMK SLP124
 8/13/ T02720229 10272 20266 51014=




000
SAZS31 NSTU 221654
MTRPPG
METAR NSTU 221651Z 10016KT 12SM FEW024 BKN220 27/23 A2987 RMK SLP115
 T02660233=




000
SAZS31 NSTU 221654
MTRPPG
METAR NSTU 221651Z 10016KT 12SM FEW024 BKN220 27/23 A2987 RMK SLP115
 T02660233=




000
SAZS31 NSTU 221653
MTRPPG
METAR NSTU 221553Z 11014KT 10SM FEW024 27/23 A2986 RMK SLP112
T02660231=




000
SAZS31 NSTU 221653
MTRPPG
METAR NSTU 221553Z 11014KT 10SM FEW024 27/23 A2986 RMK SLP112
T02660231=




000
SAZS31 NSTU 221521
MTRPPG
METAR NSTU 221450Z 11013KT 10SM FEW024 27/23 A2985 RMK SLP110 8/100
T02670227 56005=




000
SAZS31 NSTU 221520
MTRPPG
METAR NSTU 221352Z 09012KT 10SM FEW024 27/23 A2983 RMK SLP103
T02660227=




000
SAZS31 NSTU 221252
MTRPPG
METAR NSTU 221250Z 10012KT 10SM FEW024 27/23 A2985 RMK SLP110
T02680226=




000
SAZS31 NSTU 221206
MTRPPG
METAR NSTU 221150Z 09012KT 10SM FEW024 27/23 A2987 RMK SLP115 8/100
T02670226 10271 20267 56007=




000
SAZS31 NSTU 221052
MTRPPG
METAR NSTU 221050Z 10013KT 10SM FEW024 27/23 A2989 RMK SLP122
T02690228 403040259=




000
SAZS31 NSTU 220955
MTRPPG
METAR NSTU 220952Z 10015KT 10SM FEW024 27/23 A2989 RMK SLP124
T02710227=




000
SAZS31 NSTU 220955
MTRPPG
METAR NSTU 220952Z 10015KT 10SM FEW024 27/23 A2989 RMK SLP124
T02710227=




000
SAZS31 NSTU 220853
MTRPPG
METAR NSTU 220852Z 11013KT 10SM FEW024 27/22 A2989 RMK SLP122 8/100
T02700222 52019=




000
SAZS31 NSTU 220756
MTRPPG
METAR NSTU 220754Z 10011KT 10SM SCT024 27/23 A2986 RMK SLP113
T02690227=




000
SAZS31 NSTU 220653
MTRPPG
METAR NSTU 220652Z 11011KT 10SM FEW024 27/23 A2985 RMK SLP110
T02690226=




000
SAZS31 NSTU 220556
MTRPPG
METAR NSTU 220554Z 12011KT 10SM FEW024 27/22 A2983 RMK SLP103 8/100
T02700222 10304 20270 52007=




000
SAZS31 NSTU 220556
MTRPPG
METAR NSTU 220554Z 12011KT 10SM FEW024 27/22 A2983 RMK SLP103 8/100
T02700222 10304 20270 52007=




000
SAZS31 NSTU 220451
MTRPPG
METAR NSTU 220450Z 09010KT 12SM FEW024 28/22 A2982 RMK SLP100
T02760222=




000
SAZS31 NSTU 220451
MTRPPG
METAR NSTU 220450Z 09010KT 12SM FEW024 28/22 A2982 RMK SLP100
T02760222=




000
SAZS31 NSTU 220353
MTRPPG
METAR NSTU 220352Z 11010KT 12SM FEW024 29/22 A2981 RMK SLP097
T02860223=




000
SAZS31 NSTU 220251
MTRPPG
METAR NSTU 220250Z 11011KT 12SM FEW025 29/22 A2981 RMK SLP097 8/100
T02930224 56008=




000
SAZS31 NSTU 220251
MTRPPG
METAR NSTU 220250Z 11011KT 12SM FEW025 29/22 A2981 RMK SLP097 8/100
T02930224 56008=




000
SAZS31 NSTU 220151
MTRPPG
METAR NSTU 220150Z 10010KT 12SM SCT035 SCT100 30/23 A2983 RMK SLP100
T02990227=




000
SAZS31 NSTU 220052
MTRPPG
METAR NSTU 220050Z 10010KT 12SM SCT035 30/23 A2983 RMK SLP102
T03030225=




000
SAZS31 NSTU 212359
MTRPPG
METAR NSTU 212357Z 10012KT 12SM FEW030 SCT100 BKN200 30/23 A2984 RMK
SLP105 8/141 T03040227 10304 20265 57020=




000
SAZS31 NSTU 212250
MTRPPG
METAR NSTU 212250Z 10011KT 12SM SCT030 BKN100 BKN200 30/23 A2986 RMK
SLP112 T03040231=




000
SAZS31 NSTU 212250
MTRPPG
METAR NSTU 212250Z 10011KT 12SM SCT030 BKN100 BKN200 30/23 A2986 RMK
SLP112 T03040231=




000
SAZS31 NSTU 212153
MTRPPG
METAR NSTU 212152Z 10013KT 12SM SCT030 BKN100 BKN200 30/23 A2987 RMK
SLP117 T03040227=




000
SAZS31 NSTU 212153
MTRPPG
METAR NSTU 212152Z 10013KT 12SM SCT030 BKN100 BKN200 30/23 A2987 RMK
SLP117 T03040227=




000
SAZS31 NSTU 212055
MTRPPG
METAR NSTU 212053Z 10013KT 12SM SCT030 BKN100 30/23 A2990 RMK SLP125
8/140 T02960228 52003=




000
SAZS31 NSTU 211953
MTRPPG
METAR NSTU 211952Z 10011KT 12SM SCT030 BKN100 BKN200 29/23 A2990 RMK
SLP127 T02860227=




000
SAZS31 NSTU 211853
MTRPPG
METAR NSTU 211850Z 12012KT 12SM SCT024 BKN100 BKN200 28/22 A2992 RMK
SLP132 T02810222=




000
SAZS31 NSTU 211751
MTRPPG
METAR NSTU 211750Z 11011KT 12SM SCT024 SCT210 27/22 A2989 RMK SLP122
 8/101 T02650218 10265 20259 51010=




000
SAZS31 NSTU 211656
MTRPPG
METAR NSTU 211652Z 11014KT 12SM FEW024 BKN210 26/22 A2988 RMK SLP119
 T02590215=




000
SAZS31 NSTU 211656
MTRPPG
METAR NSTU 211652Z 11014KT 12SM FEW024 BKN210 26/22 A2988 RMK SLP119
 T02590215=




000
SAZS31 NSTU 211555
MTRPPG
METAR NSTU 211550Z 11011KT 10SM FEW024 26/22 A2986 RMK SLP113
T02600217=




000
SAZS31 NSTU 211555
MTRPPG
METAR NSTU 211550Z 11011KT 10SM FEW024 26/22 A2986 RMK SLP113
T02600217=




000
SAZS31 NSTU 211503
MTRPPG
METAR NSTU 211459Z 13010KT 10SM FEW024 26/22 A2986 RMK SLP112 8/100
T02610216 56007=




000
SAZS31 NSTU 211357
MTRPPG
METAR NSTU 211353Z 12012KT 10SM FEW024 26/21 A2985 RMK SLP110
T02620212=




000
SAZS31 NSTU 211254
MTRPPG
METAR NSTU 211250Z 12010KT 10SM FEW024 26/21 A2987 RMK SLP115
T02640214=




000
SAZS31 NSTU 211216
MTRPPG
METAR NSTU 211150Z 14010KT 10SM FEW024 27/21 A2988 RMK SLP119 8/100
T02650206 10270 20264 56017=




000
SAZS31 NSTU 211057
MTRPPG
METAR NSTU 211054Z 13010KT 10SM FEW024 26/22 A2991 RMK SLP129
T02640215 403010263=




000
SAZS31 NSTU 211057
MTRPPG
METAR NSTU 211054Z 13010KT 10SM FEW024 26/22 A2991 RMK SLP129
T02640215 403010263=




000
SAZS31 NSTU 210953
MTRPPG
METAR NSTU 210950Z 14010KT 10SM FEW024 27/22 A2992 RMK SLP132
T02660216=




000
SAZS31 NSTU 210854
MTRPPG
METAR NSTU 210850Z 14010KT 10SM FEW024 27/22 A2993 RMK SLP135 8/100
T02670223 52012=




000
SAZS31 NSTU 210802
MTRPPG
METAR NSTU 210756Z 13012KT 10SM SCT024 27/22 A2992 RMK SLP134
T02690222=




000
SAZS31 NSTU 210656
MTRPPG
METAR NSTU 210653Z 14009KT 10SM SCT024 27/22 A2991 RMK SLP129
T02690221=




000
SAZS31 NSTU 210553
MTRPPG
METAR NSTU 210550Z 12010KT 11SM SCT024 27/22 A2989 RMK SLP124 8/100
T02700224 10301 20270 52014=




000
SAZS31 NSTU 210500
MTRPPG
METAR NSTU 210454Z 13010KT 12SM SCT024 28/23 A2987 RMK SLP117
T02760232=




000
SAZS31 NSTU 210358
MTRPPG
METAR NSTU 210356Z 12008KT 12SM SCT024 29/23 A2986 RMK SLP110
T02850229=




000
SAZS31 NSTU 210358
MTRPPG
METAR NSTU 210356Z 12008KT 12SM SCT024 29/23 A2986 RMK SLP110
T02850229=




000
SAZS31 NSTU 210256
MTRPPG
METAR NSTU 210252Z 11009KT 12SM FEW024 29/23 A2985 RMK SLP110 8/100
T02920233 56010=




000
SAZS31 NSTU 210256
MTRPPG
METAR NSTU 210252Z 11009KT 12SM FEW024 29/23 A2985 RMK SLP110 8/100
T02920233 56010=




000
SAZS31 NSTU 210157
MTRPPG
METAR NSTU 210154Z 13009KT 12SM FEW024 SCT200 30/24 A2986 RMK SLP113
T02980238=




000
SAZS31 NSTU 210157
MTRPPG
METAR NSTU 210154Z 13009KT 12SM FEW024 SCT200 30/24 A2986 RMK SLP113
T02980238=




000
SAZS31 NSTU 210117
MTRPPG
METAR NSTU 210054Z 13008KT 12SM FEW024 SCT200 30/24 A2986 RMK SLP113
T02980237=





000
SAZS31 NSTU 202358
MTRPPG
METAR NSTU 202352Z 14010KT 12SM FEW024 SCT080 SCT100 BKN200 30/24
A2988 RMK SLP120 8/411 T03010240 10301 20272 57014=




000
SAZS31 NSTU 202255
MTRPPG
METAR NSTU 202252Z 12009KT 12SM FEW024 SCT080 BKN200 30/24 A2990 RMK
SLP127 T02970242=




000
SAZS31 NSTU 202154
MTRPPG
METAR NSTU 202151Z 11009KT 12SM FEW024 SCT080 BKN200 30/24 A2992 RMK
SLP134 T02960239=




000
SAZS31 NSTU 202154
MTRPPG
METAR NSTU 202151Z 11009KT 12SM FEW024 SCT080 BKN200 30/24 A2992 RMK
SLP134 T02960239=




000
SAZS31 NSTU 202054
MTRPPG
METAR NSTU 202050Z 11009KT 12SM FEW024TCU SCT080 BKN200 28/24 A2992
RMK SLP134 8/214 T02820236 52012=




000
SAZS31 NSTU 201954
MTRPPG
METAR NSTU 201950Z 12009KT 12SM FEW024 SCT080 BKN200 28/24 A2992 RMK
SLP132 T02830236=




000
SAZS31 NSTU 201854
MTRPPG
METAR NSTU 201851Z 10009KT 12SM FEW024 SCT080 BKN200 27/23 A2990 RMK
SLP127 T02720233=




000
SAZS31 NSTU 201757
MTRPPG
METAR NSTU 201750Z 11009KT 12SM SCT024 BKN080 BKN200 28/23 A2989 RMK
 SLP122 8/171 T02750233 10275 20263 51019=




000
SAZS31 NSTU 201656
MTRPPG
METAR NSTU 201654Z 11009KT 12SM SCT024 BKN080 BKN230 26/23 A2987 RMK
 SLP115 T02640229=




000
SAZS31 NSTU 201619
MTRPPG
METAR NSTU 201550Z 12008KT 10SM SCT022 BKN230 26/23 A2986 RMK SLP113
 T02640231=




000
SAZS31 NSTU 201407
MTRPPG
METAR NSTU 201350Z 11011KT 10SM SCT022 BKN230 27/23 A2984 RMK SLP105
 T02650231=




000
SAZS31 NSTU 201253
MTRPPG
METAR NSTU 201250Z 14011KT 10SM SCT022 BKN230 27/24 A2985 RMK SLP108
 T02660236=




000
SAZS31 NSTU 201252
MTRPPG
METAR NSTU 201150Z 11011KT 10SM FEW021 BKN230 27/23 A2986 RMK SLP113
 8/101 T02660233 10272 20266 56017=




000
SAZS31 NSTU 201055
MTRPPG
METAR NSTU 201051Z 10010KT 10SM FEW021 SCT230 27/23 A2988 RMK SLP120
 T02660233 403000260=




000
SAZS31 NSTU 200951
MTRPPG
METAR NSTU 200950Z 12010KT 10SM FEW021 SCT100 OVC230 27/23 A2990 RMK
SLP127 T02670232=




000
SAZS31 NSTU 200951
MTRPPG
METAR NSTU 200950Z 12010KT 10SM FEW021 SCT100 OVC230 27/23 A2990 RMK
SLP127 T02670232=




000
SAZS31 NSTU 200851
MTRPPG
METAR NSTU 200850Z 10010KT 10SM FEW021 SCT100 OVC230 27/23 A2991 RMK
SLP130 8/171 T02710234 52014=




000
SAZS31 NSTU 200800
MTRPPG
METAR NSTU 200757Z 12010KT 10SM FEW021 SCT100 OVC230 27/23 A2990 RMK
SLP127 T02720233=




000
SAZS31 NSTU 200652
MTRPPG
METAR NSTU 200650Z 12009KT 10SM FEW021 SCT100 OVC230 27/23 A2989 RMK
SLP124 T02710228=




000
SAZS31 NSTU 200652
MTRPPG
METAR NSTU 200650Z 12009KT 10SM FEW021 SCT100 OVC230 27/23 A2989 RMK
SLP124 T02710228=




000
SAZS31 NSTU 200557
MTRPPG
METAR NSTU 120753Z 13012KT 10SM SCT023 BKN200 26/23 A2993 RMK SLP135
T02640230=





000
SAZS31 NSTU 200557
MTRPPG
METAR NSTU 120753Z 13012KT 10SM SCT023 BKN200 26/23 A2993 RMK SLP135
T02640230=





000
SAZS31 NSTU 200459
MTRPPG
METAR NSTU 200455Z 12009KT 12SM FEW020 SCT100 OVC230 28/23 A2986 RMK
SLP112 T02760231=





000
SAZS31 NSTU 200459
MTRPPG
METAR NSTU 200455Z 12009KT 12SM FEW020 SCT100 OVC230 28/23 A2986 RMK
SLP112 T02760231=





000
SAZS31 NSTU 200357
MTRPPG
METAR NSTU 200350Z 12009KT 12SM FEW020 SCT100 OVC230 29/23 A2983 RMK
SLP103 T02870234=






000
SAZS31 NSTU 200253
MTRPPG
METAR NSTU 200250Z 11008KT 12SM FEW020 SCT100 BKN200 29/24 A2983 RMK
SLP103 8/141 T02880236 57010=




000
SAZS31 NSTU 200159
MTRPPG
METAR NSTU 200157Z 12007KT 12SM FEW020 SCT100 BKN200 30/24 A2985 RMK
SLP108 T02960236=




000
SAZS31 NSTU 200101
MTRPPG
METAR NSTU 200057Z 12005KT 12SM FEW020 FEW100 SCT200 30/23 A2986 RMK
SLP110 T02950234=




    US Dept of Commerce
    National Oceanic and Atmospheric Administration
    National Weather Service
    1325 East West Highway
    Silver Spring, MD 20910
    Page Author: NWS Internet Services Team
Disclaimer
Information Quality
Credits
Glossary
Privacy Policy
Freedom of Information Act (FOIA)
About Us
Career Opportunities